createdAt,value
2017-08-07T00:02:00.063Z,13.20
2017-08-07T00:04:27.708Z,13.20
2017-08-07T00:06:55.455Z,13.20
2017-08-07T00:09:23.146Z,13.30
2017-08-07T00:11:50.846Z,13.30
2017-08-07T00:14:18.477Z,13.40
2017-08-07T00:16:46.169Z,13.30
2017-08-07T00:19:14.190Z,13.40
2017-08-07T00:21:41.833Z,13.40
2017-08-07T00:24:09.685Z,13.40
2017-08-07T00:26:37.318Z,13.40
2017-08-07T00:29:04.955Z,13.40
2017-08-07T00:31:32.662Z,13.40
2017-08-07T00:34:00.303Z,13.30
2017-08-07T00:36:28.014Z,13.30
2017-08-07T00:38:55.760Z,13.20
2017-08-07T00:41:23.509Z,13.20
2017-08-07T00:43:51.150Z,13.20
2017-08-07T00:46:18.899Z,13.20
2017-08-07T00:48:46.548Z,13.20
2017-08-07T00:51:14.189Z,13.10
2017-08-07T00:53:41.935Z,13.00
2017-08-07T00:56:09.683Z,13.10
2017-08-07T00:58:37.326Z,13.10
2017-08-07T01:01:05.179Z,13.00
2017-08-07T01:03:32.827Z,12.90
2017-08-07T01:06:00.571Z,12.80
2017-08-07T01:08:28.318Z,12.70
2017-08-07T01:10:55.953Z,12.70
2017-08-07T01:13:23.581Z,12.60
2017-08-07T01:15:51.458Z,12.70
2017-08-07T01:18:19.103Z,12.60
2017-08-07T01:20:46.748Z,12.50
2017-08-07T01:23:14.494Z,12.40
2017-08-07T01:25:42.122Z,12.50
2017-08-07T01:28:09.783Z,12.50
2017-08-07T01:30:37.482Z,12.50
2017-08-07T01:33:05.176Z,12.60
2017-08-07T01:35:32.925Z,12.70
2017-08-07T01:38:00.620Z,12.70
2017-08-07T01:40:28.275Z,12.80
2017-08-07T01:42:55.962Z,12.80
2017-08-07T01:45:23.658Z,12.70
2017-08-07T01:47:51.352Z,12.70
2017-08-07T01:50:19.041Z,12.70
2017-08-07T01:52:46.835Z,12.70
2017-08-07T01:55:14.494Z,12.70
2017-08-07T01:57:42.239Z,12.60
2017-08-07T02:00:10.089Z,12.50
2017-08-07T02:02:37.733Z,12.50
2017-08-07T02:05:05.361Z,12.50
2017-08-07T02:07:33.060Z,12.40
2017-08-07T02:10:00.694Z,12.40
2017-08-07T02:12:28.418Z,12.50
2017-08-07T02:14:56.110Z,12.50
2017-08-07T02:17:23.751Z,12.50
2017-08-07T02:19:51.454Z,12.60
2017-08-07T02:22:19.150Z,12.60
2017-08-07T02:24:46.782Z,12.50
2017-08-07T02:27:14.491Z,12.50
2017-08-07T02:29:42.178Z,12.50
2017-08-07T02:32:09.838Z,12.40
2017-08-07T02:34:37.527Z,12.40
2017-08-07T02:37:05.201Z,12.30
2017-08-07T02:39:33.218Z,12.10
2017-08-07T02:42:00.889Z,12.10
2017-08-07T02:44:28.725Z,12.00
2017-08-07T02:46:56.370Z,11.90
2017-08-07T02:49:24.007Z,11.80
2017-08-07T02:51:51.691Z,11.80
2017-08-07T02:54:19.727Z,11.70
2017-08-07T02:56:47.358Z,11.70
2017-08-07T02:59:15.104Z,11.70
2017-08-07T03:01:42.747Z,11.70
2017-08-07T03:04:10.381Z,11.80
2017-08-07T03:06:38.140Z,11.80
2017-08-07T03:09:05.774Z,11.70
2017-08-07T03:11:33.432Z,11.70
2017-08-07T03:14:01.180Z,11.70
2017-08-07T03:16:28.824Z,11.60
2017-08-07T03:18:56.577Z,11.60
2017-08-07T03:21:24.319Z,11.60
2017-08-07T03:23:51.958Z,11.60
2017-08-07T03:26:19.608Z,11.60
2017-08-07T03:28:47.302Z,11.70
2017-08-07T03:31:15.000Z,11.70
2017-08-07T03:33:42.634Z,11.80
2017-08-07T03:36:10.332Z,11.70
2017-08-07T03:38:37.957Z,11.70
2017-08-07T03:41:06.605Z,11.40
2017-08-07T03:43:34.291Z,11.50
2017-08-07T03:46:01.997Z,11.40
2017-08-07T03:48:29.714Z,11.40
2017-08-07T03:50:57.514Z,11.40
2017-08-07T03:53:25.239Z,11.40
2017-08-07T03:55:53.072Z,11.30
2017-08-07T03:58:20.766Z,11.20
2017-08-07T04:00:48.480Z,11.10
2017-08-07T04:03:16.126Z,11.20
2017-08-07T04:05:43.797Z,11.20
2017-08-07T04:08:11.926Z,11.40
2017-08-07T04:10:39.575Z,11.40
2017-08-07T04:13:07.262Z,11.40
2017-08-07T04:15:34.964Z,11.40
2017-08-07T04:18:02.609Z,11.40
2017-08-07T04:20:30.358Z,11.30
2017-08-07T04:22:58.000Z,11.30
2017-08-07T04:25:25.750Z,11.40
2017-08-07T04:27:53.442Z,11.40
2017-08-07T04:30:21.141Z,11.40
2017-08-07T04:32:48.786Z,11.30
2017-08-07T04:35:16.533Z,11.40
2017-08-07T04:37:44.281Z,11.40
2017-08-07T04:40:12.027Z,11.40
2017-08-07T04:42:39.705Z,11.40
2017-08-07T04:45:07.346Z,11.50
2017-08-07T04:47:35.375Z,11.50
2017-08-07T04:50:03.154Z,11.50
2017-08-07T04:52:30.868Z,11.50
2017-08-07T04:54:58.514Z,11.60
2017-08-07T04:57:26.259Z,11.70
2017-08-07T04:59:54.007Z,11.80
2017-08-07T05:02:21.650Z,11.90
2017-08-07T05:04:49.355Z,11.90
2017-08-07T05:07:17.146Z,11.90
2017-08-07T05:09:44.893Z,12.00
2017-08-07T05:12:12.642Z,12.10
2017-08-07T05:14:40.388Z,12.30
2017-08-07T05:17:08.134Z,12.50
2017-08-07T05:19:35.881Z,12.70
2017-08-07T05:22:03.599Z,12.80
2017-08-07T05:24:31.330Z,13.00
2017-08-07T05:26:59.126Z,13.30
2017-08-07T05:29:26.771Z,13.40
2017-08-07T05:31:54.517Z,13.50
2017-08-07T05:34:22.219Z,13.70
2017-08-07T05:36:49.874Z,13.70
2017-08-07T05:39:17.556Z,13.90
2017-08-07T05:41:45.247Z,14.00
2017-08-07T05:44:12.891Z,14.20
2017-08-07T05:46:40.898Z,14.20
2017-08-07T05:49:08.595Z,14.40
2017-08-07T05:51:36.392Z,14.50
2017-08-07T05:54:04.039Z,14.80
2017-08-07T05:56:31.725Z,15.00
2017-08-07T05:58:59.353Z,15.10
2017-08-07T06:01:26.989Z,15.30
2017-08-07T06:03:54.721Z,15.40
2017-08-07T06:06:22.378Z,15.50
2017-08-07T06:08:50.027Z,15.60
2017-08-07T06:11:17.758Z,15.80
2017-08-07T06:13:45.504Z,16.00
2017-08-07T06:16:13.148Z,16.00
2017-08-07T06:18:40.998Z,16.10
2017-08-07T06:21:08.642Z,16.20
2017-08-07T06:23:36.390Z,16.10
2017-08-07T06:26:04.140Z,16.10
2017-08-07T06:28:31.784Z,16.30
2017-08-07T06:30:59.532Z,16.40
2017-08-07T06:33:27.279Z,16.40
2017-08-07T06:35:54.927Z,16.20
2017-08-07T06:38:22.569Z,16.60
2017-08-07T06:40:50.247Z,17.00
2017-08-07T06:43:18.369Z,17.20
2017-08-07T06:45:46.117Z,17.20
2017-08-07T06:48:13.865Z,17.10
2017-08-07T06:50:41.507Z,17.20
2017-08-07T06:53:09.153Z,17.30
2017-08-07T06:55:36.901Z,17.40
2017-08-07T06:58:04.537Z,17.50
2017-08-07T07:00:32.171Z,17.80
2017-08-07T07:02:59.940Z,18.00
2017-08-07T07:05:27.570Z,17.80
2017-08-07T07:07:55.206Z,17.80
2017-08-07T07:10:22.890Z,18.00
2017-08-07T07:12:50.622Z,18.20
2017-08-07T07:15:18.369Z,18.50
2017-08-07T07:17:46.115Z,18.60
2017-08-07T07:20:13.862Z,18.80
2017-08-07T07:22:41.510Z,19.00
2017-08-07T07:25:09.255Z,19.00
2017-08-07T07:27:37.001Z,19.10
2017-08-07T07:30:04.752Z,19.30
2017-08-07T07:32:32.499Z,19.30
2017-08-07T07:35:00.248Z,19.30
2017-08-07T07:37:27.874Z,19.20
2017-08-07T07:39:55.570Z,19.10
2017-08-07T07:42:23.691Z,19.10
2017-08-07T07:44:51.336Z,19.10
2017-08-07T07:47:19.084Z,19.00
2017-08-07T07:49:46.714Z,19.10
2017-08-07T07:52:14.373Z,19.20
2017-08-07T07:54:42.061Z,19.20
2017-08-07T07:57:09.689Z,19.20
2017-08-07T07:59:37.321Z,19.00
2017-08-07T08:02:05.082Z,19.00
2017-08-07T08:04:32.804Z,18.90
2017-08-07T08:07:00.438Z,19.20
2017-08-07T08:09:28.131Z,19.10
2017-08-07T08:11:56.250Z,19.60
2017-08-07T08:14:23.895Z,19.60
2017-08-07T08:16:51.594Z,19.40
2017-08-07T08:19:19.255Z,19.00
2017-08-07T08:21:46.887Z,19.10
2017-08-07T08:24:14.657Z,19.20
2017-08-07T08:26:42.324Z,19.00
2017-08-07T08:29:09.972Z,19.20
2017-08-07T08:31:37.650Z,19.20
2017-08-07T08:34:05.770Z,19.40
2017-08-07T08:36:33.417Z,19.40
2017-08-07T08:39:01.109Z,19.20
2017-08-07T08:41:28.814Z,19.10
2017-08-07T08:43:56.556Z,19.30
2017-08-07T08:46:24.405Z,19.60
2017-08-07T08:48:52.026Z,19.90
2017-08-07T08:51:19.670Z,20.20
2017-08-07T08:53:47.441Z,20.00
2017-08-07T08:56:15.189Z,19.80
2017-08-07T08:58:42.935Z,20.00
2017-08-07T09:01:10.683Z,19.80
2017-08-07T09:03:38.432Z,19.80
2017-08-07T09:06:06.177Z,20.10
2017-08-07T09:08:33.871Z,20.10
2017-08-07T09:11:01.542Z,20.00
2017-08-07T09:13:29.194Z,20.30
2017-08-07T09:15:57.072Z,20.10
2017-08-07T09:18:24.814Z,20.00
2017-08-07T09:20:52.560Z,20.20
2017-08-07T09:23:20.242Z,20.50
2017-08-07T09:25:47.875Z,20.90
2017-08-07T09:28:15.904Z,20.80
2017-08-07T09:30:43.651Z,20.80
2017-08-07T09:33:11.306Z,20.40
2017-08-07T09:35:38.946Z,20.20
2017-08-07T09:38:06.791Z,20.20
2017-08-07T09:40:34.544Z,20.20
2017-08-07T09:43:02.289Z,20.50
2017-08-07T09:45:30.034Z,21.00
2017-08-07T09:47:57.678Z,21.00
2017-08-07T09:50:25.323Z,21.00
2017-08-07T09:52:53.071Z,20.80
2017-08-07T09:55:20.706Z,20.90
2017-08-07T09:57:48.360Z,20.40
2017-08-07T10:00:16.108Z,20.10
2017-08-07T10:02:43.751Z,20.40
2017-08-07T10:05:11.397Z,20.60
2017-08-07T10:07:39.094Z,20.40
2017-08-07T10:10:06.725Z,20.60
2017-08-07T10:12:34.846Z,21.30
2017-08-07T10:15:02.534Z,21.30
2017-08-07T10:17:30.237Z,21.60
2017-08-07T10:19:57.859Z,21.30
2017-08-07T10:22:25.629Z,21.20
2017-08-07T10:24:53.262Z,21.40
2017-08-07T10:27:20.918Z,21.60
2017-08-07T10:29:48.621Z,21.80
2017-08-07T10:32:16.242Z,21.30
2017-08-07T10:34:43.874Z,21.00
2017-08-07T10:37:12.010Z,20.60
2017-08-07T10:39:39.653Z,20.60
2017-08-07T10:42:07.282Z,20.90
2017-08-07T10:44:35.047Z,21.40
2017-08-07T10:47:02.695Z,21.50
2017-08-07T10:49:30.440Z,21.50
2017-08-07T10:51:58.188Z,21.40
2017-08-07T10:54:25.831Z,21.50
2017-08-07T10:56:53.580Z,21.80
2017-08-07T10:59:21.269Z,21.80
2017-08-07T11:01:48.971Z,21.90
2017-08-07T11:04:16.615Z,22.00
2017-08-07T11:06:44.297Z,22.30
2017-08-07T11:09:12.422Z,22.00
2017-08-07T11:11:40.164Z,22.00
2017-08-07T11:14:07.912Z,22.10
2017-08-07T11:16:35.538Z,22.40
2017-08-07T11:19:03.161Z,22.50
2017-08-07T11:21:30.951Z,22.60
2017-08-07T11:23:58.699Z,22.70
2017-08-07T11:26:26.317Z,22.80
2017-08-07T11:28:54.010Z,22.90
2017-08-07T11:31:22.143Z,22.90
2017-08-07T11:33:49.774Z,22.90
2017-08-07T11:36:17.535Z,23.30
2017-08-07T11:38:45.389Z,23.70
2017-08-07T11:41:13.014Z,23.30
2017-08-07T11:43:40.746Z,23.20
2017-08-07T11:46:08.421Z,23.10
2017-08-07T11:48:36.068Z,22.90
2017-08-07T11:51:03.758Z,22.80
2017-08-07T11:53:31.460Z,22.60
2017-08-07T11:55:59.118Z,22.20
2017-08-07T11:58:26.853Z,22.00
2017-08-07T12:00:54.604Z,22.10
2017-08-07T12:03:22.245Z,22.30
2017-08-07T12:05:49.926Z,22.70
2017-08-07T12:08:18.046Z,23.10
2017-08-07T12:10:45.691Z,23.10
2017-08-07T12:13:13.437Z,23.40
2017-08-07T12:15:41.081Z,23.80
2017-08-07T12:18:09.751Z,23.90
2017-08-07T12:20:37.601Z,24.00
2017-08-07T12:23:05.242Z,24.30
2017-08-07T12:25:32.893Z,24.70
2017-08-07T12:28:00.743Z,24.80
2017-08-07T12:30:28.387Z,24.70
2017-08-07T12:32:56.031Z,24.90
2017-08-07T12:35:23.779Z,24.40
2017-08-07T12:37:51.423Z,23.90
2017-08-07T12:40:19.068Z,23.50
2017-08-07T12:42:46.815Z,23.50
2017-08-07T12:45:14.563Z,23.80
2017-08-07T12:47:42.206Z,23.70
2017-08-07T12:50:09.954Z,23.70
2017-08-07T12:52:37.598Z,23.90
2017-08-07T12:55:05.230Z,24.20
2017-08-07T12:57:32.917Z,24.00
2017-08-07T13:00:01.049Z,23.30
2017-08-07T13:02:28.678Z,23.30
2017-08-07T13:04:56.362Z,23.30
2017-08-07T13:07:24.393Z,23.50
2017-08-07T13:09:52.040Z,23.50
2017-08-07T13:12:19.784Z,23.90
2017-08-07T13:14:47.428Z,24.00
2017-08-07T13:17:15.176Z,23.90
2017-08-07T13:19:42.854Z,23.80
2017-08-07T13:22:10.977Z,24.30
2017-08-07T13:24:38.621Z,24.30
2017-08-07T13:27:06.372Z,24.70
2017-08-07T13:29:34.015Z,24.90
2017-08-07T13:32:01.655Z,24.90
2017-08-07T13:34:29.342Z,24.70
2017-08-07T13:36:57.473Z,24.20
2017-08-07T13:39:25.105Z,24.20
2017-08-07T13:41:52.853Z,24.10
2017-08-07T13:44:20.498Z,24.40
2017-08-07T13:46:48.143Z,24.60
2017-08-07T13:49:15.891Z,24.30
2017-08-07T13:51:43.535Z,24.30
2017-08-07T13:54:11.161Z,24.50
2017-08-07T13:56:38.854Z,24.90
2017-08-07T13:59:06.981Z,24.90
2017-08-07T14:01:34.611Z,24.90
2017-08-07T14:04:02.302Z,24.60
2017-08-07T14:06:30.431Z,24.70
2017-08-07T14:08:58.075Z,24.70
2017-08-07T14:11:25.786Z,25.00
2017-08-07T14:13:53.405Z,25.30
2017-08-07T14:16:21.521Z,25.20
2017-08-07T14:18:49.268Z,25.20
2017-08-07T14:21:17.015Z,25.20
2017-08-07T14:23:44.659Z,25.10
2017-08-07T14:26:12.410Z,25.00
2017-08-07T14:28:40.050Z,25.10
2017-08-07T14:31:07.696Z,24.90
2017-08-07T14:33:35.383Z,24.90
2017-08-07T14:36:03.092Z,25.00
2017-08-07T14:38:30.736Z,25.10
2017-08-07T14:40:58.485Z,25.20
2017-08-07T14:43:26.229Z,25.20
2017-08-07T14:45:53.874Z,25.20
2017-08-07T14:48:21.623Z,25.20
2017-08-07T14:50:49.258Z,25.20
2017-08-07T14:53:16.911Z,25.10
2017-08-07T14:55:44.660Z,25.10
2017-08-07T14:58:12.302Z,25.10
2017-08-07T15:00:39.948Z,25.00
2017-08-07T15:03:07.797Z,24.90
2017-08-07T15:05:35.425Z,24.80
2017-08-07T15:08:03.090Z,24.70
2017-08-07T15:10:30.840Z,24.80
2017-08-07T15:12:58.480Z,24.80
2017-08-07T15:15:26.126Z,24.70
2017-08-07T15:17:53.873Z,24.40
2017-08-07T15:20:21.518Z,24.30
2017-08-07T15:22:49.163Z,24.40
2017-08-07T15:25:16.942Z,24.30
2017-08-07T15:27:45.072Z,24.20
2017-08-07T15:30:12.726Z,24.20
2017-08-07T15:32:40.430Z,24.20
2017-08-07T15:35:08.058Z,24.10
2017-08-07T15:37:35.697Z,24.10
2017-08-07T15:40:03.498Z,24.10
2017-08-07T15:42:31.135Z,24.20
2017-08-07T15:44:58.786Z,24.10
2017-08-07T15:47:26.536Z,24.00
2017-08-07T15:49:54.166Z,23.90
2017-08-07T15:52:21.802Z,23.80
2017-08-07T15:54:49.571Z,23.80
2017-08-07T15:57:17.318Z,23.80
2017-08-07T15:59:44.945Z,23.60
2017-08-07T16:02:12.710Z,23.50
2017-08-07T16:04:40.355Z,23.50
2017-08-07T16:07:07.999Z,23.40
2017-08-07T16:09:35.746Z,23.30
2017-08-07T16:12:03.400Z,23.00
2017-08-07T16:14:31.141Z,22.90
2017-08-07T16:16:58.841Z,22.80
2017-08-07T16:19:26.474Z,22.70
2017-08-07T16:21:54.105Z,22.70
2017-08-07T16:24:22.190Z,22.50
2017-08-07T16:26:49.877Z,22.50
2017-08-07T16:29:17.509Z,22.50
2017-08-07T16:31:45.269Z,22.40
2017-08-07T16:34:12.912Z,22.50
2017-08-07T16:36:40.541Z,22.30
2017-08-07T16:39:08.305Z,22.30
2017-08-07T16:41:35.949Z,22.30
2017-08-07T16:44:03.596Z,22.20
2017-08-07T16:46:31.282Z,22.20
2017-08-07T16:48:59.404Z,22.10
2017-08-07T16:51:27.146Z,22.10
2017-08-07T16:53:54.833Z,22.00
2017-08-07T16:56:22.463Z,22.00
2017-08-07T16:58:50.592Z,21.90
2017-08-07T17:01:18.339Z,21.90
2017-08-07T17:03:45.983Z,21.80
2017-08-07T17:06:13.627Z,21.80
2017-08-07T17:08:41.479Z,21.80
2017-08-07T17:11:09.225Z,21.80
2017-08-07T17:13:36.870Z,21.80
2017-08-07T17:16:04.562Z,21.70
2017-08-07T17:18:32.265Z,21.70
2017-08-07T17:20:59.986Z,21.60
2017-08-07T17:23:27.669Z,21.60
2017-08-07T17:25:55.404Z,21.50
2017-08-07T17:28:23.039Z,21.40
2017-08-07T17:30:50.795Z,21.40
2017-08-07T17:33:18.439Z,21.40
2017-08-07T17:35:46.084Z,21.30
2017-08-07T17:38:13.832Z,21.30
2017-08-07T17:40:41.578Z,21.20
2017-08-07T17:43:09.220Z,21.20
2017-08-07T17:45:36.907Z,21.10
2017-08-07T17:48:05.028Z,21.00
2017-08-07T17:50:32.667Z,21.00
2017-08-07T17:53:00.420Z,21.00
2017-08-07T17:55:28.063Z,20.90
2017-08-07T17:57:55.811Z,20.90
2017-08-07T18:00:23.493Z,20.80
2017-08-07T18:02:51.613Z,20.70
2017-08-07T18:05:19.361Z,20.70
2017-08-07T18:07:47.047Z,20.70
2017-08-07T18:10:14.765Z,20.70
2017-08-07T18:12:42.408Z,20.60
2017-08-07T18:15:10.143Z,20.50
2017-08-07T18:17:37.788Z,20.50
2017-08-07T18:20:05.418Z,20.40
2017-08-07T18:22:33.182Z,20.40
2017-08-07T18:25:00.826Z,20.30
2017-08-07T18:27:28.475Z,20.20
2017-08-07T18:29:56.169Z,20.20
2017-08-07T18:32:23.863Z,20.10
2017-08-07T18:34:51.495Z,20.10
2017-08-07T18:37:19.255Z,20.10
2017-08-07T18:39:46.901Z,20.00
2017-08-07T18:42:14.546Z,19.90
2017-08-07T18:44:42.292Z,19.90
2017-08-07T18:47:09.927Z,19.80
2017-08-07T18:49:37.580Z,19.80
2017-08-07T18:52:05.253Z,19.70
2017-08-07T18:54:33.290Z,19.60
2017-08-07T18:57:01.133Z,19.60
2017-08-07T18:59:29.246Z,19.40
2017-08-07T19:01:56.934Z,19.40
2017-08-07T19:04:24.578Z,19.40
2017-08-07T19:06:52.428Z,19.50
2017-08-07T19:09:20.062Z,19.70
2017-08-07T19:11:47.710Z,19.60
2017-08-07T19:14:15.482Z,19.60
2017-08-07T19:16:43.212Z,19.50
2017-08-07T19:19:10.850Z,19.40
2017-08-07T19:21:38.537Z,19.30
2017-08-07T19:24:06.571Z,19.20
2017-08-07T19:26:34.210Z,19.20
2017-08-07T19:29:01.903Z,19.20
2017-08-07T19:31:29.799Z,19.10
2017-08-07T19:33:57.547Z,19.00
2017-08-07T19:36:25.297Z,19.00
2017-08-07T19:38:53.092Z,18.90
2017-08-07T19:41:20.783Z,18.90
2017-08-07T19:43:48.490Z,18.90
2017-08-07T19:46:16.130Z,18.80
2017-08-07T19:48:43.899Z,18.70
2017-08-07T19:51:12.595Z,18.60
2017-08-07T19:53:40.230Z,18.60
2017-08-07T19:56:07.870Z,18.60
2017-08-07T19:58:35.632Z,18.50
2017-08-07T20:01:03.266Z,18.50
2017-08-07T20:03:30.933Z,18.50
2017-08-07T20:05:58.619Z,18.50
2017-08-07T20:08:26.290Z,18.50
2017-08-07T20:10:53.935Z,18.50
2017-08-07T20:13:21.655Z,18.50
2017-08-07T20:15:49.454Z,18.50
2017-08-07T20:18:17.201Z,18.40
2017-08-07T20:20:44.903Z,18.40
2017-08-07T20:23:12.561Z,18.50
2017-08-07T20:25:40.214Z,18.50
2017-08-07T20:28:07.985Z,18.40
2017-08-07T20:30:35.619Z,18.40
2017-08-07T20:33:03.275Z,18.40
2017-08-07T20:35:30.958Z,18.30
2017-08-07T20:37:59.005Z,18.20
2017-08-07T20:40:27.137Z,18.10
2017-08-07T20:42:54.859Z,18.10
2017-08-07T20:45:22.524Z,18.10
2017-08-07T20:47:50.171Z,18.10
2017-08-07T20:50:17.986Z,18.00
2017-08-07T20:52:45.625Z,17.90
2017-08-07T20:55:13.262Z,17.90
2017-08-07T20:57:40.960Z,17.80
2017-08-07T21:00:08.700Z,17.80
2017-08-07T21:02:36.346Z,17.70
2017-08-07T21:05:04.048Z,17.60
2017-08-07T21:07:31.740Z,17.60
2017-08-07T21:09:59.467Z,17.50
2017-08-07T21:12:27.218Z,17.50
2017-08-07T21:14:54.881Z,17.40
2017-08-07T21:17:22.624Z,17.40
2017-08-07T21:19:50.327Z,17.30
2017-08-07T21:22:17.986Z,17.30
2017-08-07T21:24:45.614Z,17.30
2017-08-07T21:27:13.412Z,17.40
2017-08-07T21:29:41.063Z,17.40
2017-08-07T21:32:08.733Z,17.50
2017-08-07T21:34:36.450Z,17.50
2017-08-07T21:37:04.082Z,17.50
2017-08-07T21:39:31.772Z,17.60
2017-08-07T21:41:59.539Z,17.60
2017-08-07T21:44:27.187Z,17.60
2017-08-07T21:46:54.826Z,17.50
2017-08-07T21:49:22.526Z,17.40
2017-08-07T21:51:50.174Z,17.30
2017-08-07T21:54:17.814Z,17.30
2017-08-07T21:56:45.602Z,17.30
2017-08-07T21:59:13.265Z,17.30
2017-08-07T22:01:40.966Z,17.30
2017-08-07T22:04:08.695Z,17.20
2017-08-07T22:06:36.354Z,17.20
2017-08-07T22:09:04.107Z,17.20
2017-08-07T22:11:32.299Z,17.00
2017-08-07T22:13:59.996Z,17.00
2017-08-07T22:16:27.634Z,17.00
2017-08-07T22:18:55.334Z,17.00
2017-08-07T22:21:23.031Z,16.90
2017-08-07T22:23:50.677Z,16.90
2017-08-07T22:26:18.370Z,16.80
2017-08-07T22:28:46.010Z,16.80
2017-08-07T22:31:13.713Z,16.80
2017-08-07T22:33:41.407Z,16.70
2017-08-07T22:36:09.038Z,16.60
2017-08-07T22:38:36.677Z,16.70
2017-08-07T22:41:04.764Z,16.70
2017-08-07T22:43:32.393Z,16.70
2017-08-07T22:46:00.027Z,16.70
2017-08-07T22:48:28.117Z,16.70
2017-08-07T22:50:55.754Z,16.70
2017-08-07T22:53:23.386Z,16.60
2017-08-07T22:55:51.088Z,16.60
2017-08-07T22:58:18.727Z,16.70
2017-08-07T23:00:46.391Z,16.70
2017-08-07T23:03:14.120Z,16.70
2017-08-07T23:05:41.750Z,16.70
2017-08-07T23:08:09.382Z,16.60
2017-08-07T23:10:37.156Z,16.60
2017-08-07T23:13:04.804Z,16.60
2017-08-07T23:15:32.434Z,16.60
2017-08-07T23:18:00.196Z,16.60
2017-08-07T23:20:27.842Z,16.70
2017-08-07T23:22:55.474Z,16.60
2017-08-07T23:25:23.726Z,16.60
2017-08-07T23:27:51.366Z,16.50
2017-08-07T23:30:19.038Z,16.50
2017-08-07T23:32:46.734Z,16.50
2017-08-07T23:35:14.362Z,16.50
2017-08-07T23:37:42.390Z,16.50
2017-08-07T23:40:10.070Z,16.50
2017-08-07T23:42:37.710Z,16.50
2017-08-07T23:45:05.349Z,16.50
2017-08-07T23:47:33.038Z,16.50
2017-08-07T23:50:00.670Z,16.40
2017-08-07T23:52:28.351Z,16.30
2017-08-07T23:54:56.051Z,16.20
2017-08-07T23:57:23.688Z,16.20
2017-08-07T23:59:51.335Z,16.10
